sensor_id;sensor_type;location;lat;lon;timestamp;P1;durP1;ratioP1;P2;durP2;ratioP2
68800;SDS011;55784;50.734;7.086;2023-04-25T00:00:23;9.83;;;2.53;;
68800;SDS011;55784;50.734;7.086;2023-04-25T00:02:50;9.38;;;2.60;;
68800;SDS011;55784;50.734;7.086;2023-04-25T00:05:15;7.60;;;2.30;;
68800;SDS011;55784;50.734;7.086;2023-04-25T00:07:41;12.90;;;2.60;;
68800;SDS011;55784;50.734;7.086;2023-04-25T00:10:09;11.07;;;2.60;;
68800;SDS011;55784;50.734;7.086;2023-04-25T00:12:36;8.23;;;2.30;;
68800;SDS011;55784;50.734;7.086;2023-04-25T00:15:01;10.40;;;3.00;;
68800;SDS011;55784;50.734;7.086;2023-04-25T00:17:28;11.70;;;2.50;;
68800;SDS011;55784;50.734;7.086;2023-04-25T00:19:53;9.07;;;2.10;;
68800;SDS011;55784;50.734;7.086;2023-04-25T00:22:18;9.30;;;2.25;;
68800;SDS011;55784;50.734;7.086;2023-04-25T00:24:44;10.20;;;2.60;;
68800;SDS011;55784;50.734;7.086;2023-04-25T00:27:09;8.80;;;2.17;;
68800;SDS011;55784;50.734;7.086;2023-04-25T00:29:35;8.50;;;2.50;;
68800;SDS011;55784;50.734;7.086;2023-04-25T00:32:01;8.07;;;2.27;;
68800;SDS011;55784;50.734;7.086;2023-04-25T00:34:26;9.68;;;2.80;;
68800;SDS011;55784;50.734;7.086;2023-04-25T00:36:51;9.30;;;2.40;;
68800;SDS011;55784;50.734;7.086;2023-04-25T00:39:17;11.13;;;2.40;;
68800;SDS011;55784;50.734;7.086;2023-04-25T00:41:42;9.70;;;2.37;;
68800;SDS011;55784;50.734;7.086;2023-04-25T00:44:08;10.13;;;3.08;;
68800;SDS011;55784;50.734;7.086;2023-04-25T00:46:36;10.55;;;2.58;;
68800;SDS011;55784;50.734;7.086;2023-04-25T00:49:01;10.13;;;3.00;;
68800;SDS011;55784;50.734;7.086;2023-04-25T00:51:27;13.20;;;3.03;;
68800;SDS011;55784;50.734;7.086;2023-04-25T00:53:52;9.30;;;3.05;;
68800;SDS011;55784;50.734;7.086;2023-04-25T00:56:18;11.47;;;2.80;;
68800;SDS011;55784;50.734;7.086;2023-04-25T00:58:44;9.90;;;2.80;;
68800;SDS011;55784;50.734;7.086;2023-04-25T01:01:10;10.57;;;2.97;;
68800;SDS011;55784;50.734;7.086;2023-04-25T01:03:37;9.73;;;2.65;;
68800;SDS011;55784;50.734;7.086;2023-04-25T01:06:07;8.00;;;2.75;;
68800;SDS011;55784;50.734;7.086;2023-04-25T01:08:34;10.95;;;2.80;;
68800;SDS011;55784;50.734;7.086;2023-04-25T01:10:59;12.07;;;2.90;;
68800;SDS011;55784;50.734;7.086;2023-04-25T01:13:24;15.53;;;3.30;;
68800;SDS011;55784;50.734;7.086;2023-04-25T01:15:50;12.63;;;3.07;;
68800;SDS011;55784;50.734;7.086;2023-04-25T01:18:15;9.40;;;2.80;;
68800;SDS011;55784;50.734;7.086;2023-04-25T01:20:41;11.85;;;3.20;;
68800;SDS011;55784;50.734;7.086;2023-04-25T01:23:07;11.02;;;3.17;;
68800;SDS011;55784;50.734;7.086;2023-04-25T01:25:33;10.80;;;3.20;;
68800;SDS011;55784;50.734;7.086;2023-04-25T01:28:00;9.43;;;2.55;;
68800;SDS011;55784;50.734;7.086;2023-04-25T01:30:26;12.37;;;3.07;;
68800;SDS011;55784;50.734;7.086;2023-04-25T01:32:52;10.48;;;3.05;;
68800;SDS011;55784;50.734;7.086;2023-04-25T01:35:20;12.25;;;3.22;;
68800;SDS011;55784;50.734;7.086;2023-04-25T01:37:46;10.32;;;3.00;;
68800;SDS011;55784;50.734;7.086;2023-04-25T01:40:12;11.77;;;3.10;;
68800;SDS011;55784;50.734;7.086;2023-04-25T01:42:40;11.63;;;3.00;;
68800;SDS011;55784;50.734;7.086;2023-04-25T01:45:07;11.43;;;3.20;;
68800;SDS011;55784;50.734;7.086;2023-04-25T01:47:33;14.93;;;3.30;;
68800;SDS011;55784;50.734;7.086;2023-04-25T01:50:04;11.45;;;3.22;;
68800;SDS011;55784;50.734;7.086;2023-04-25T01:52:31;10.77;;;2.85;;
68800;SDS011;55784;50.734;7.086;2023-04-25T01:54:57;9.13;;;3.00;;
68800;SDS011;55784;50.734;7.086;2023-04-25T01:57:24;11.30;;;3.17;;
68800;SDS011;55784;50.734;7.086;2023-04-25T01:59:49;12.00;;;3.00;;
68800;SDS011;55784;50.734;7.086;2023-04-25T02:02:16;10.73;;;3.03;;
68800;SDS011;55784;50.734;7.086;2023-04-25T02:04:41;11.87;;;3.00;;
68800;SDS011;55784;50.734;7.086;2023-04-25T02:07:06;12.80;;;3.63;;
68800;SDS011;55784;50.734;7.086;2023-04-25T02:09:31;15.60;;;3.50;;
68800;SDS011;55784;50.734;7.086;2023-04-25T02:11:57;13.33;;;3.10;;
68800;SDS011;55784;50.734;7.086;2023-04-25T02:14:23;9.47;;;3.00;;
68800;SDS011;55784;50.734;7.086;2023-04-25T02:16:48;11.97;;;3.10;;
68800;SDS011;55784;50.734;7.086;2023-04-25T02:19:14;12.43;;;3.22;;
68800;SDS011;55784;50.734;7.086;2023-04-25T02:21:39;13.10;;;3.20;;
68800;SDS011;55784;50.734;7.086;2023-04-25T02:24:05;16.07;;;3.63;;
68800;SDS011;55784;50.734;7.086;2023-04-25T02:26:30;12.23;;;3.40;;
68800;SDS011;55784;50.734;7.086;2023-04-25T02:28:56;12.40;;;3.60;;
68800;SDS011;55784;50.734;7.086;2023-04-25T02:31:22;9.73;;;3.22;;
68800;SDS011;55784;50.734;7.086;2023-04-25T02:33:47;13.43;;;3.37;;
68800;SDS011;55784;50.734;7.086;2023-04-25T02:36:12;10.60;;;3.13;;
68800;SDS011;55784;50.734;7.086;2023-04-25T02:38:38;12.37;;;3.27;;
68800;SDS011;55784;50.734;7.086;2023-04-25T02:41:03;13.27;;;3.08;;
68800;SDS011;55784;50.734;7.086;2023-04-25T02:43:29;14.33;;;3.20;;
68800;SDS011;55784;50.734;7.086;2023-04-25T02:45:54;12.27;;;3.20;;
68800;SDS011;55784;50.734;7.086;2023-04-25T02:48:20;10.93;;;3.30;;
68800;SDS011;55784;50.734;7.086;2023-04-25T02:50:45;10.88;;;2.78;;
68800;SDS011;55784;50.734;7.086;2023-04-25T02:53:10;15.43;;;3.03;;
68800;SDS011;55784;50.734;7.086;2023-04-25T02:55:36;12.93;;;3.00;;
68800;SDS011;55784;50.734;7.086;2023-04-25T02:58:01;12.87;;;3.03;;
68800;SDS011;55784;50.734;7.086;2023-04-25T03:00:27;12.50;;;2.90;;
68800;SDS011;55784;50.734;7.086;2023-04-25T03:02:52;14.47;;;2.90;;
68800;SDS011;55784;50.734;7.086;2023-04-25T03:05:17;15.15;;;3.75;;
68800;SDS011;55784;50.734;7.086;2023-04-25T03:07:43;11.70;;;3.08;;
68800;SDS011;55784;50.734;7.086;2023-04-25T03:10:09;11.90;;;3.00;;
68800;SDS011;55784;50.734;7.086;2023-04-25T03:12:35;12.18;;;2.75;;
68800;SDS011;55784;50.734;7.086;2023-04-25T03:15:01;10.13;;;2.70;;
68800;SDS011;55784;50.734;7.086;2023-04-25T03:17:26;13.10;;;2.97;;
68800;SDS011;55784;50.734;7.086;2023-04-25T03:19:52;15.47;;;3.30;;
68800;SDS011;55784;50.734;7.086;2023-04-25T03:22:17;12.90;;;2.90;;
68800;SDS011;55784;50.734;7.086;2023-04-25T03:24:43;11.30;;;3.33;;
68800;SDS011;55784;50.734;7.086;2023-04-25T03:27:08;9.90;;;2.53;;
68800;SDS011;55784;50.734;7.086;2023-04-25T03:29:34;9.03;;;2.60;;
68800;SDS011;55784;50.734;7.086;2023-04-25T03:31:59;13.07;;;3.10;;
68800;SDS011;55784;50.734;7.086;2023-04-25T03:34:24;13.10;;;2.70;;
68800;SDS011;55784;50.734;7.086;2023-04-25T03:36:50;12.07;;;3.40;;
68800;SDS011;55784;50.734;7.086;2023-04-25T03:39:16;13.47;;;3.13;;
68800;SDS011;55784;50.734;7.086;2023-04-25T03:41:41;14.48;;;2.90;;
68800;SDS011;55784;50.734;7.086;2023-04-25T03:44:06;16.13;;;3.23;;
68800;SDS011;55784;50.734;7.086;2023-04-25T03:46:32;13.20;;;3.23;;
68800;SDS011;55784;50.734;7.086;2023-04-25T03:48:57;11.47;;;2.90;;
68800;SDS011;55784;50.734;7.086;2023-04-25T03:51:24;13.07;;;2.83;;
68800;SDS011;55784;50.734;7.086;2023-04-25T03:53:50;13.33;;;3.00;;
68800;SDS011;55784;50.734;7.086;2023-04-25T03:56:15;10.45;;;3.25;;
68800;SDS011;55784;50.734;7.086;2023-04-25T03:58:40;11.47;;;2.97;;
68800;SDS011;55784;50.734;7.086;2023-04-25T04:01:06;11.83;;;2.83;;
68800;SDS011;55784;50.734;7.086;2023-04-25T04:03:35;12.40;;;3.15;;
68800;SDS011;55784;50.734;7.086;2023-04-25T04:06:02;12.27;;;2.90;;
68800;SDS011;55784;50.734;7.086;2023-04-25T04:08:29;9.60;;;2.70;;
68800;SDS011;55784;50.734;7.086;2023-04-25T04:10:55;10.45;;;2.97;;
68800;SDS011;55784;50.734;7.086;2023-04-25T04:13:22;10.82;;;2.70;;
68800;SDS011;55784;50.734;7.086;2023-04-25T04:15:47;11.53;;;3.03;;
68800;SDS011;55784;50.734;7.086;2023-04-25T04:18:13;8.60;;;2.70;;
68800;SDS011;55784;50.734;7.086;2023-04-25T04:20:38;11.37;;;2.93;;
68800;SDS011;55784;50.734;7.086;2023-04-25T04:23:03;11.83;;;2.80;;
68800;SDS011;55784;50.734;7.086;2023-04-25T04:25:28;12.60;;;3.10;;
68800;SDS011;55784;50.734;7.086;2023-04-25T04:27:55;12.65;;;2.95;;
68800;SDS011;55784;50.734;7.086;2023-04-25T04:30:23;14.07;;;3.10;;
68800;SDS011;55784;50.734;7.086;2023-04-25T04:32:50;12.65;;;3.22;;
68800;SDS011;55784;50.734;7.086;2023-04-25T04:35:15;13.70;;;2.90;;
68800;SDS011;55784;50.734;7.086;2023-04-25T04:37:40;13.97;;;3.07;;
68800;SDS011;55784;50.734;7.086;2023-04-25T04:40:06;12.50;;;2.93;;
68800;SDS011;55784;50.734;7.086;2023-04-25T04:42:32;10.20;;;2.78;;
68800;SDS011;55784;50.734;7.086;2023-04-25T04:44:57;11.80;;;3.10;;
68800;SDS011;55784;50.734;7.086;2023-04-25T04:47:23;13.68;;;3.33;;
68800;SDS011;55784;50.734;7.086;2023-04-25T04:49:50;11.32;;;2.97;;
68800;SDS011;55784;50.734;7.086;2023-04-25T04:52:16;11.50;;;3.03;;
68800;SDS011;55784;50.734;7.086;2023-04-25T04:54:41;12.53;;;2.73;;
68800;SDS011;55784;50.734;7.086;2023-04-25T04:57:06;12.20;;;2.97;;
68800;SDS011;55784;50.734;7.086;2023-04-25T04:59:32;14.47;;;3.43;;
68800;SDS011;55784;50.734;7.086;2023-04-25T05:01:57;9.95;;;2.90;;
68800;SDS011;55784;50.734;7.086;2023-04-25T05:04:22;13.40;;;3.80;;
68800;SDS011;55784;50.734;7.086;2023-04-25T05:06:51;22.07;;;8.07;;
68800;SDS011;55784;50.734;7.086;2023-04-25T05:09:16;15.38;;;4.40;;
68800;SDS011;55784;50.734;7.086;2023-04-25T05:11:41;14.93;;;3.60;;
68800;SDS011;55784;50.734;7.086;2023-04-25T05:14:07;12.57;;;3.73;;
68800;SDS011;55784;50.734;7.086;2023-04-25T05:16:32;15.27;;;4.47;;
68800;SDS011;55784;50.734;7.086;2023-04-25T05:18:57;11.83;;;3.27;;
68800;SDS011;55784;50.734;7.086;2023-04-25T05:21:22;13.30;;;3.23;;
68800;SDS011;55784;50.734;7.086;2023-04-25T05:23:48;12.73;;;3.00;;
68800;SDS011;55784;50.734;7.086;2023-04-25T05:26:13;12.70;;;3.40;;
68800;SDS011;55784;50.734;7.086;2023-04-25T05:28:39;13.53;;;3.57;;
68800;SDS011;55784;50.734;7.086;2023-04-25T05:31:05;14.43;;;3.67;;
68800;SDS011;55784;50.734;7.086;2023-04-25T05:33:31;16.45;;;5.40;;
68800;SDS011;55784;50.734;7.086;2023-04-25T05:35:57;15.50;;;3.77;;
68800;SDS011;55784;50.734;7.086;2023-04-25T05:38:22;13.03;;;3.37;;
68800;SDS011;55784;50.734;7.086;2023-04-25T05:40:47;14.00;;;3.20;;
68800;SDS011;55784;50.734;7.086;2023-04-25T05:43:13;12.23;;;3.10;;
68800;SDS011;55784;50.734;7.086;2023-04-25T05:45:38;10.87;;;3.03;;
68800;SDS011;55784;50.734;7.086;2023-04-25T05:48:03;16.00;;;3.57;;
68800;SDS011;55784;50.734;7.086;2023-04-25T05:50:28;12.23;;;2.93;;
68800;SDS011;55784;50.734;7.086;2023-04-25T05:52:54;17.57;;;3.97;;
68800;SDS011;55784;50.734;7.086;2023-04-25T05:55:19;12.00;;;3.20;;
68800;SDS011;55784;50.734;7.086;2023-04-25T05:57:45;16.77;;;3.97;;
68800;SDS011;55784;50.734;7.086;2023-04-25T06:00:11;12.80;;;3.43;;
68800;SDS011;55784;50.734;7.086;2023-04-25T06:02:38;20.23;;;4.25;;
68800;SDS011;55784;50.734;7.086;2023-04-25T06:05:03;13.50;;;3.13;;
68800;SDS011;55784;50.734;7.086;2023-04-25T06:07:29;15.67;;;3.47;;
68800;SDS011;55784;50.734;7.086;2023-04-25T06:09:55;12.57;;;3.00;;
68800;SDS011;55784;50.734;7.086;2023-04-25T06:12:21;14.43;;;3.40;;
68800;SDS011;55784;50.734;7.086;2023-04-25T06:14:46;18.73;;;3.87;;
68800;SDS011;55784;50.734;7.086;2023-04-25T06:17:11;16.57;;;3.47;;
68800;SDS011;55784;50.734;7.086;2023-04-25T06:19:37;12.00;;;3.97;;
68800;SDS011;55784;50.734;7.086;2023-04-25T06:22:02;12.07;;;3.00;;
68800;SDS011;55784;50.734;7.086;2023-04-25T06:24:27;13.80;;;3.40;;
68800;SDS011;55784;50.734;7.086;2023-04-25T06:26:53;14.30;;;3.30;;
68800;SDS011;55784;50.734;7.086;2023-04-25T06:29:19;15.85;;;3.75;;
68800;SDS011;55784;50.734;7.086;2023-04-25T06:31:44;16.40;;;3.77;;
68800;SDS011;55784;50.734;7.086;2023-04-25T06:34:09;15.13;;;4.10;;
68800;SDS011;55784;50.734;7.086;2023-04-25T06:36:35;15.82;;;3.55;;
68800;SDS011;55784;50.734;7.086;2023-04-25T06:39:00;18.20;;;3.70;;
68800;SDS011;55784;50.734;7.086;2023-04-25T06:41:25;16.50;;;3.70;;
68800;SDS011;55784;50.734;7.086;2023-04-25T06:43:51;14.67;;;4.03;;
68800;SDS011;55784;50.734;7.086;2023-04-25T06:46:16;14.77;;;4.07;;
68800;SDS011;55784;50.734;7.086;2023-04-25T06:48:41;14.97;;;3.70;;
68800;SDS011;55784;50.734;7.086;2023-04-25T06:51:07;15.30;;;3.33;;
68800;SDS011;55784;50.734;7.086;2023-04-25T06:53:32;16.43;;;3.57;;
68800;SDS011;55784;50.734;7.086;2023-04-25T06:55:57;11.03;;;2.93;;
68800;SDS011;55784;50.734;7.086;2023-04-25T06:58:24;13.52;;;3.30;;
68800;SDS011;55784;50.734;7.086;2023-04-25T07:00:51;15.75;;;3.35;;
68800;SDS011;55784;50.734;7.086;2023-04-25T07:03:16;19.60;;;3.67;;
68800;SDS011;55784;50.734;7.086;2023-04-25T07:05:41;14.77;;;3.57;;
68800;SDS011;55784;50.734;7.086;2023-04-25T07:08:07;15.75;;;3.40;;
68800;SDS011;55784;50.734;7.086;2023-04-25T07:10:32;10.90;;;2.97;;
68800;SDS011;55784;50.734;7.086;2023-04-25T07:12:58;22.87;;;4.07;;
68800;SDS011;55784;50.734;7.086;2023-04-25T07:15:23;14.53;;;3.10;;
68800;SDS011;55784;50.734;7.086;2023-04-25T07:17:48;12.17;;;3.57;;
68800;SDS011;55784;50.734;7.086;2023-04-25T07:20:14;15.10;;;3.20;;
68800;SDS011;55784;50.734;7.086;2023-04-25T07:22:39;11.35;;;2.65;;
68800;SDS011;55784;50.734;7.086;2023-04-25T07:25:05;14.40;;;2.95;;
68800;SDS011;55784;50.734;7.086;2023-04-25T07:27:31;13.27;;;2.73;;
68800;SDS011;55784;50.734;7.086;2023-04-25T07:29:56;11.82;;;2.97;;
68800;SDS011;55784;50.734;7.086;2023-04-25T07:32:22;11.33;;;2.47;;
68800;SDS011;55784;50.734;7.086;2023-04-25T07:34:47;14.00;;;2.60;;
68800;SDS011;55784;50.734;7.086;2023-04-25T07:37:13;11.40;;;2.63;;
68800;SDS011;55784;50.734;7.086;2023-04-25T07:39:39;14.05;;;2.70;;
68800;SDS011;55784;50.734;7.086;2023-04-25T07:42:05;15.02;;;2.80;;
68800;SDS011;55784;50.734;7.086;2023-04-25T07:44:33;10.50;;;2.92;;
68800;SDS011;55784;50.734;7.086;2023-04-25T07:47:03;13.25;;;3.47;;
68800;SDS011;55784;50.734;7.086;2023-04-25T07:49:29;10.73;;;2.50;;
68800;SDS011;55784;50.734;7.086;2023-04-25T07:51:54;7.30;;;1.93;;
68800;SDS011;55784;50.734;7.086;2023-04-25T07:54:20;11.37;;;2.10;;
68800;SDS011;55784;50.734;7.086;2023-04-25T07:56:45;7.17;;;1.87;;
68800;SDS011;55784;50.734;7.086;2023-04-25T07:59:10;11.30;;;2.40;;
68800;SDS011;55784;50.734;7.086;2023-04-25T08:01:36;12.67;;;2.50;;
68800;SDS011;55784;50.734;7.086;2023-04-25T08:04:01;10.57;;;2.60;;
68800;SDS011;55784;50.734;7.086;2023-04-25T08:06:27;11.73;;;2.33;;
68800;SDS011;55784;50.734;7.086;2023-04-25T08:08:52;12.50;;;2.30;;
68800;SDS011;55784;50.734;7.086;2023-04-25T08:11:18;10.70;;;2.20;;
68800;SDS011;55784;50.734;7.086;2023-04-25T08:13:43;10.33;;;2.27;;
68800;SDS011;55784;50.734;7.086;2023-04-25T08:16:08;9.03;;;1.90;;
68800;SDS011;55784;50.734;7.086;2023-04-25T08:18:33;13.10;;;1.97;;
68800;SDS011;55784;50.734;7.086;2023-04-25T08:20:59;10.43;;;2.10;;
68800;SDS011;55784;50.734;7.086;2023-04-25T08:23:24;9.33;;;2.10;;
68800;SDS011;55784;50.734;7.086;2023-04-25T08:25:49;13.67;;;2.23;;
68800;SDS011;55784;50.734;7.086;2023-04-25T08:28:15;9.70;;;1.98;;
68800;SDS011;55784;50.734;7.086;2023-04-25T08:30:41;9.63;;;2.20;;
68800;SDS011;55784;50.734;7.086;2023-04-25T08:33:06;9.50;;;2.10;;
68800;SDS011;55784;50.734;7.086;2023-04-25T08:35:32;9.53;;;2.00;;
68800;SDS011;55784;50.734;7.086;2023-04-25T08:37:58;10.55;;;2.20;;
68800;SDS011;55784;50.734;7.086;2023-04-25T08:40:23;9.90;;;1.63;;
68800;SDS011;55784;50.734;7.086;2023-04-25T08:42:53;10.60;;;1.90;;
68800;SDS011;55784;50.734;7.086;2023-04-25T08:45:20;8.77;;;1.63;;
68800;SDS011;55784;50.734;7.086;2023-04-25T08:47:49;11.82;;;2.15;;
68800;SDS011;55784;50.734;7.086;2023-04-25T08:50:17;9.00;;;2.00;;
68800;SDS011;55784;50.734;7.086;2023-04-25T08:52:43;9.60;;;2.33;;
68800;SDS011;55784;50.734;7.086;2023-04-25T08:55:11;10.15;;;2.00;;
68800;SDS011;55784;50.734;7.086;2023-04-25T08:57:39;11.85;;;2.28;;
68800;SDS011;55784;50.734;7.086;2023-04-25T09:00:08;6.77;;;1.60;;
68800;SDS011;55784;50.734;7.086;2023-04-25T09:02:34;9.20;;;2.08;;
68800;SDS011;55784;50.734;7.086;2023-04-25T09:05:00;9.30;;;1.90;;
68800;SDS011;55784;50.734;7.086;2023-04-25T09:07:27;8.68;;;2.08;;
68800;SDS011;55784;50.734;7.086;2023-04-25T09:09:53;9.33;;;1.73;;
68800;SDS011;55784;50.734;7.086;2023-04-25T09:12:19;9.85;;;1.85;;
68800;SDS011;55784;50.734;7.086;2023-04-25T09:14:55;9.07;;;1.88;;
68800;SDS011;55784;50.734;7.086;2023-04-25T09:17:32;6.90;;;1.40;;
68800;SDS011;55784;50.734;7.086;2023-04-25T09:20:05;8.38;;;1.90;;
68800;SDS011;55784;50.734;7.086;2023-04-25T09:22:36;10.00;;;1.50;;
68800;SDS011;55784;50.734;7.086;2023-04-25T09:25:02;5.55;;;1.55;;
68800;SDS011;55784;50.734;7.086;2023-04-25T09:27:29;8.50;;;2.00;;
68800;SDS011;55784;50.734;7.086;2023-04-25T09:29:58;11.45;;;1.90;;
68800;SDS011;55784;50.734;7.086;2023-04-25T09:32:25;7.60;;;1.73;;
68800;SDS011;55784;50.734;7.086;2023-04-25T09:34:55;6.72;;;1.63;;
68800;SDS011;55784;50.734;7.086;2023-04-25T09:37:25;9.90;;;1.77;;
68800;SDS011;55784;50.734;7.086;2023-04-25T09:39:55;9.85;;;1.90;;
68800;SDS011;55784;50.734;7.086;2023-04-25T09:42:25;6.85;;;1.50;;
68800;SDS011;55784;50.734;7.086;2023-04-25T09:44:53;9.07;;;1.50;;
68800;SDS011;55784;50.734;7.086;2023-04-25T09:47:20;10.25;;;1.70;;
68800;SDS011;55784;50.734;7.086;2023-04-25T09:49:48;8.95;;;1.73;;
68800;SDS011;55784;50.734;7.086;2023-04-25T09:52:15;8.18;;;1.60;;
68800;SDS011;55784;50.734;7.086;2023-04-25T09:54:42;6.70;;;1.77;;
68800;SDS011;55784;50.734;7.086;2023-04-25T09:59:51;8.05;;;1.60;;
68800;SDS011;55784;50.734;7.086;2023-04-25T10:02:18;9.82;;;2.15;;
68800;SDS011;55784;50.734;7.086;2023-04-25T10:04:55;6.68;;;1.83;;
68800;SDS011;55784;50.734;7.086;2023-04-25T10:07:24;10.25;;;1.70;;
68800;SDS011;55784;50.734;7.086;2023-04-25T10:09:53;8.20;;;1.85;;
68800;SDS011;55784;50.734;7.086;2023-04-25T10:12:24;7.78;;;1.70;;
68800;SDS011;55784;50.734;7.086;2023-04-25T10:14:49;9.03;;;1.80;;
68800;SDS011;55784;50.734;7.086;2023-04-25T10:17:16;8.30;;;2.00;;
68800;SDS011;55784;50.734;7.086;2023-04-25T10:19:42;8.23;;;1.65;;
68800;SDS011;55784;50.734;7.086;2023-04-25T10:22:18;9.50;;;1.83;;
68800;SDS011;55784;50.734;7.086;2023-04-25T10:25:00;6.65;;;1.33;;
68800;SDS011;55784;50.734;7.086;2023-04-25T10:27:28;8.25;;;1.40;;
68800;SDS011;55784;50.734;7.086;2023-04-25T10:30:03;9.23;;;1.80;;
68800;SDS011;55784;50.734;7.086;2023-04-25T10:32:36;7.90;;;1.98;;
68800;SDS011;55784;50.734;7.086;2023-04-25T10:35:11;7.40;;;1.60;;
68800;SDS011;55784;50.734;7.086;2023-04-25T10:38:00;10.23;;;2.17;;
68800;SDS011;55784;50.734;7.086;2023-04-25T10:40:28;8.25;;;2.10;;
68800;SDS011;55784;50.734;7.086;2023-04-25T10:42:53;7.73;;;2.10;;
68800;SDS011;55784;50.734;7.086;2023-04-25T10:45:20;8.63;;;1.90;;
68800;SDS011;55784;50.734;7.086;2023-04-25T10:47:45;8.43;;;2.13;;
68800;SDS011;55784;50.734;7.086;2023-04-25T10:50:11;9.23;;;1.90;;
68800;SDS011;55784;50.734;7.086;2023-04-25T10:52:39;9.43;;;1.90;;
68800;SDS011;55784;50.734;7.086;2023-04-25T10:55:08;9.32;;;2.08;;
68800;SDS011;55784;50.734;7.086;2023-04-25T10:57:43;9.70;;;1.97;;
68800;SDS011;55784;50.734;7.086;2023-04-25T11:00:17;12.82;;;2.10;;
68800;SDS011;55784;50.734;7.086;2023-04-25T11:05:10;12.83;;;1.93;;
68800;SDS011;55784;50.734;7.086;2023-04-25T11:07:51;10.43;;;2.13;;
68800;SDS011;55784;50.734;7.086;2023-04-25T11:10:24;8.75;;;2.30;;
68800;SDS011;55784;50.734;7.086;2023-04-25T11:12:54;8.18;;;2.03;;
68800;SDS011;55784;50.734;7.086;2023-04-25T11:15:20;12.07;;;2.37;;
68800;SDS011;55784;50.734;7.086;2023-04-25T11:17:45;8.85;;;1.95;;
68800;SDS011;55784;50.734;7.086;2023-04-25T11:20:11;8.43;;;2.17;;
68800;SDS011;55784;50.734;7.086;2023-04-25T11:22:39;9.90;;;2.10;;
68800;SDS011;55784;50.734;7.086;2023-04-25T11:25:06;9.38;;;2.03;;
68800;SDS011;55784;50.734;7.086;2023-04-25T11:27:57;8.00;;;2.28;;
68800;SDS011;55784;50.734;7.086;2023-04-25T11:30:22;10.57;;;2.20;;
68800;SDS011;55784;50.734;7.086;2023-04-25T11:32:49;9.43;;;2.03;;
68800;SDS011;55784;50.734;7.086;2023-04-25T11:35:15;8.57;;;2.00;;
68800;SDS011;55784;50.734;7.086;2023-04-25T11:37:40;8.83;;;1.97;;
68800;SDS011;55784;50.734;7.086;2023-04-25T11:40:07;10.65;;;2.40;;
68800;SDS011;55784;50.734;7.086;2023-04-25T11:42:34;9.30;;;2.10;;
68800;SDS011;55784;50.734;7.086;2023-04-25T11:45:01;10.63;;;2.60;;
68800;SDS011;55784;50.734;7.086;2023-04-25T11:47:29;9.40;;;2.28;;
68800;SDS011;55784;50.734;7.086;2023-04-25T11:49:57;8.20;;;2.33;;
68800;SDS011;55784;50.734;7.086;2023-04-25T11:52:23;10.15;;;2.10;;
68800;SDS011;55784;50.734;7.086;2023-04-25T11:54:49;9.70;;;1.87;;
68800;SDS011;55784;50.734;7.086;2023-04-25T11:57:14;10.27;;;2.10;;
68800;SDS011;55784;50.734;7.086;2023-04-25T11:59:39;9.57;;;2.20;;
68800;SDS011;55784;50.734;7.086;2023-04-25T12:02:05;8.48;;;1.60;;
68800;SDS011;55784;50.734;7.086;2023-04-25T12:04:31;7.28;;;1.73;;
68800;SDS011;55784;50.734;7.086;2023-04-25T12:06:57;6.33;;;1.27;;
68800;SDS011;55784;50.734;7.086;2023-04-25T12:09:29;9.40;;;1.60;;
68800;SDS011;55784;50.734;7.086;2023-04-25T12:11:57;7.38;;;1.60;;
68800;SDS011;55784;50.734;7.086;2023-04-25T12:14:27;12.75;;;2.30;;
68800;SDS011;55784;50.734;7.086;2023-04-25T12:16:55;7.10;;;1.33;;
68800;SDS011;55784;50.734;7.086;2023-04-25T12:19:22;7.57;;;1.30;;
68800;SDS011;55784;50.734;7.086;2023-04-25T12:21:48;6.40;;;1.42;;
68800;SDS011;55784;50.734;7.086;2023-04-25T12:24:15;7.32;;;1.30;;
68800;SDS011;55784;50.734;7.086;2023-04-25T12:27:01;6.80;;;1.35;;
68800;SDS011;55784;50.734;7.086;2023-04-25T12:29:29;10.00;;;1.60;;
68800;SDS011;55784;50.734;7.086;2023-04-25T12:31:56;8.68;;;1.67;;
68800;SDS011;55784;50.734;7.086;2023-04-25T12:34:22;7.03;;;1.63;;
68800;SDS011;55784;50.734;7.086;2023-04-25T12:36:48;7.18;;;1.40;;
68800;SDS011;55784;50.734;7.086;2023-04-25T12:39:15;7.22;;;1.70;;
68800;SDS011;55784;50.734;7.086;2023-04-25T12:41:41;9.93;;;1.63;;
68800;SDS011;55784;50.734;7.086;2023-04-25T12:44:06;7.73;;;1.77;;
68800;SDS011;55784;50.734;7.086;2023-04-25T12:46:32;11.20;;;2.27;;
68800;SDS011;55784;50.734;7.086;2023-04-25T12:48:57;9.27;;;1.77;;
68800;SDS011;55784;50.734;7.086;2023-04-25T12:51:22;7.85;;;1.58;;
68800;SDS011;55784;50.734;7.086;2023-04-25T12:53:50;9.23;;;1.90;;
68800;SDS011;55784;50.734;7.086;2023-04-25T12:56:15;8.65;;;2.45;;
68800;SDS011;55784;50.734;7.086;2023-04-25T12:58:41;9.17;;;1.90;;
68800;SDS011;55784;50.734;7.086;2023-04-25T13:01:08;7.35;;;1.50;;
68800;SDS011;55784;50.734;7.086;2023-04-25T13:03:34;6.37;;;1.50;;
68800;SDS011;55784;50.734;7.086;2023-04-25T13:05:59;8.30;;;1.70;;
68800;SDS011;55784;50.734;7.086;2023-04-25T13:08:25;6.72;;;1.90;;
68800;SDS011;55784;50.734;7.086;2023-04-25T13:10:51;9.77;;;1.70;;
68800;SDS011;55784;50.734;7.086;2023-04-25T13:13:16;9.27;;;1.60;;
68800;SDS011;55784;50.734;7.086;2023-04-25T13:15:42;8.77;;;2.10;;
68800;SDS011;55784;50.734;7.086;2023-04-25T13:18:07;7.00;;;1.67;;
68800;SDS011;55784;50.734;7.086;2023-04-25T13:20:33;7.88;;;1.63;;
68800;SDS011;55784;50.734;7.086;2023-04-25T13:22:58;7.97;;;1.80;;
68800;SDS011;55784;50.734;7.086;2023-04-25T13:25:24;8.07;;;1.73;;
68800;SDS011;55784;50.734;7.086;2023-04-25T13:27:50;8.17;;;1.67;;
68800;SDS011;55784;50.734;7.086;2023-04-25T13:30:15;11.73;;;1.80;;
68800;SDS011;55784;50.734;7.086;2023-04-25T13:32:41;6.43;;;1.50;;
68800;SDS011;55784;50.734;7.086;2023-04-25T13:35:10;8.18;;;1.50;;
68800;SDS011;55784;50.734;7.086;2023-04-25T13:37:37;8.73;;;1.80;;
68800;SDS011;55784;50.734;7.086;2023-04-25T13:40:04;7.05;;;1.50;;
68800;SDS011;55784;50.734;7.086;2023-04-25T13:42:33;7.90;;;1.52;;
68800;SDS011;55784;50.734;7.086;2023-04-25T13:44:59;6.60;;;1.50;;
68800;SDS011;55784;50.734;7.086;2023-04-25T13:47:25;6.57;;;1.40;;
68800;SDS011;55784;50.734;7.086;2023-04-25T13:49:51;9.23;;;1.40;;
68800;SDS011;55784;50.734;7.086;2023-04-25T13:52:16;8.60;;;1.60;;
68800;SDS011;55784;50.734;7.086;2023-04-25T13:54:42;6.22;;;1.13;;
68800;SDS011;55784;50.734;7.086;2023-04-25T13:57:07;6.57;;;1.30;;
68800;SDS011;55784;50.734;7.086;2023-04-25T13:59:32;8.60;;;1.60;;
68800;SDS011;55784;50.734;7.086;2023-04-25T14:01:58;7.50;;;1.70;;
68800;SDS011;55784;50.734;7.086;2023-04-25T14:04:23;9.77;;;1.90;;
68800;SDS011;55784;50.734;7.086;2023-04-25T14:06:50;6.35;;;1.50;;
68800;SDS011;55784;50.734;7.086;2023-04-25T14:09:16;8.75;;;1.60;;
68800;SDS011;55784;50.734;7.086;2023-04-25T14:11:41;7.23;;;1.70;;
68800;SDS011;55784;50.734;7.086;2023-04-25T14:14:06;8.70;;;1.73;;
68800;SDS011;55784;50.734;7.086;2023-04-25T14:16:32;5.20;;;1.27;;
68800;SDS011;55784;50.734;7.086;2023-04-25T14:18:58;7.32;;;1.58;;
68800;SDS011;55784;50.734;7.086;2023-04-25T14:21:23;6.05;;;1.45;;
68800;SDS011;55784;50.734;7.086;2023-04-25T14:23:49;4.65;;;1.08;;
68800;SDS011;55784;50.734;7.086;2023-04-25T14:26:14;5.07;;;1.10;;
68800;SDS011;55784;50.734;7.086;2023-04-25T14:28:40;7.07;;;1.57;;
68800;SDS011;55784;50.734;7.086;2023-04-25T14:31:05;7.82;;;1.58;;
68800;SDS011;55784;50.734;7.086;2023-04-25T14:33:31;7.40;;;1.50;;
68800;SDS011;55784;50.734;7.086;2023-04-25T14:35:56;6.93;;;1.40;;
68800;SDS011;55784;50.734;7.086;2023-04-25T14:38:22;7.47;;;1.60;;
68800;SDS011;55784;50.734;7.086;2023-04-25T14:40:51;8.20;;;1.60;;